Main page
METAR-TAF:

METAR-TAF

Airports :

Burgas Airport

Burgas, Bulgaria

latitude: 42-29N, longitude: 027-29E, elevation: 16 m

Current weather observation

The report was made 39 minutes ago, at 12:30 UTC
Wind 15 kt from the East
Temperature 24°C
Humidity 57%
Pressure 1019 hPa
Visibility 10 km or more
Few clouds at a height of 4600 ft

METAR: LBBG 211230Z 09015KT 9999 FEW046 24/15 Q1019 NOSIG

Time: 16:09 (13:09 UTC)

Forecast

The report was made 2 hours and 9 minutes ago, at 11:00 UTC
Forecast valid from 21 at 12 UTC to 22 at 12 UTC
Wind 16 kt from the East
Visibility 10 km or more
Scattered clouds at a height of 3500 ft
Becoming
from 21 at 18 UTC to 21 at 20 UTC
Wind 10 kt from the North
Becoming
from 22 at 08 UTC to 22 at 10 UTC
Wind 10 kt from the East

TAF: LBBG 211100Z 2112/2212 08016KT 9999 SCT035 BECMG 2118/2120 01010KT BECMG 2208/2210 09010KT

Weather observations and forecasts of more than 4000 airports (METAR and TAF reports).

The available stations are represented by yellow and red dots on the map.

Hover mouse over dot to see the name of the station.

Then click to see weather observations and forecasts.

To change the map : click on the green buttons with a black cross to zoom in, on the green button with a dash to zoom out, or on the green arrows for adjacent maps.


METAR-TAF: